createdAt,value
2018-10-21T00:00:46.699Z,20.73
2018-10-21T00:03:15.151Z,25.77
2018-10-21T00:05:44.286Z,30.80
2018-10-21T00:08:12.662Z,24.50
2018-10-21T00:10:41.089Z,26.07
2018-10-21T00:13:09.455Z,23.00
2018-10-21T00:15:38.044Z,25.50
2018-10-21T00:18:06.305Z,30.73
2018-10-21T00:20:34.715Z,22.33
2018-10-21T00:23:03.972Z,25.30
2018-10-21T00:25:32.254Z,31.70
2018-10-21T00:28:00.535Z,24.03
2018-10-21T00:30:28.855Z,21.37
2018-10-21T00:32:57.213Z,24.93
2018-10-21T00:35:25.583Z,26.50
2018-10-21T00:37:53.953Z,31.90
2018-10-21T00:40:22.327Z,24.30
2018-10-21T00:42:50.710Z,23.70
2018-10-21T00:45:19.123Z,25.73
2018-10-21T00:47:47.526Z,25.17
2018-10-21T00:50:15.910Z,24.30
2018-10-21T00:52:44.297Z,30.77
2018-10-21T00:55:12.692Z,23.97
2018-10-21T00:57:41.083Z,25.93
2018-10-21T01:00:11.287Z,23.33
2018-10-21T01:02:39.783Z,31.40
2018-10-21T01:05:09.031Z,22.23
2018-10-21T01:07:37.400Z,31.77
2018-10-21T01:10:06.888Z,26.60
2018-10-21T01:12:35.429Z,27.30
2018-10-21T01:15:03.869Z,26.80
2018-10-21T01:17:32.311Z,25.53
2018-10-21T01:20:00.700Z,31.67
2018-10-21T01:22:29.131Z,26.90
2018-10-21T01:24:57.495Z,27.70
2018-10-21T01:27:25.849Z,26.37
2018-10-21T01:29:54.213Z,25.43
2018-10-21T01:32:22.579Z,26.60
2018-10-21T01:34:50.939Z,33.40
2018-10-21T01:37:19.356Z,30.70
2018-10-21T01:40:52.051Z,28.57
2018-10-21T01:43:27.875Z,28.47
2018-10-21T01:45:56.547Z,27.43
2018-10-21T01:48:25.919Z,30.67
2018-10-21T01:50:54.254Z,31.97
2018-10-21T01:53:22.842Z,33.27
2018-10-21T01:55:51.228Z,28.03
2018-10-21T01:58:19.611Z,29.03
2018-10-21T02:00:47.956Z,33.67
2018-10-21T02:03:16.544Z,26.77
2018-10-21T02:05:45.508Z,25.77
2018-10-21T02:08:13.819Z,26.33
2018-10-21T02:10:43.422Z,34.60
2018-10-21T02:13:11.826Z,30.30
2018-10-21T02:15:40.175Z,30.27
2018-10-21T02:18:08.510Z,33.60
2018-10-21T02:20:36.846Z,28.10
2018-10-21T02:23:05.244Z,25.50
2018-10-21T02:25:33.602Z,28.77
2018-10-21T02:28:01.975Z,26.97
2018-10-21T02:30:31.176Z,34.37
2018-10-21T02:33:00.427Z,24.70
2018-10-21T02:35:28.745Z,29.27
2018-10-21T02:37:57.760Z,26.00
2018-10-21T02:41:43.450Z,29.37
2018-10-21T02:44:13.435Z,23.87
2018-10-21T02:46:42.391Z,26.13
2018-10-21T02:49:11.632Z,25.70
2018-10-21T02:51:40.048Z,24.17
2018-10-21T02:54:08.802Z,28.90
2018-10-21T02:56:37.205Z,26.90
2018-10-21T02:59:06.403Z,24.17
2018-10-21T03:01:34.879Z,21.80
2018-10-21T03:04:03.336Z,29.13
2018-10-21T03:06:31.811Z,30.30
2018-10-21T03:09:00.331Z,23.63
2018-10-21T03:11:28.690Z,26.83
2018-10-21T03:13:57.113Z,30.47
2018-10-21T03:16:25.564Z,27.63
2018-10-21T03:18:54.107Z,28.03
2018-10-21T03:21:22.672Z,32.70
2018-10-21T03:23:50.975Z,29.00
2018-10-21T03:26:19.368Z,31.77
2018-10-21T03:28:47.851Z,29.93
2018-10-21T03:31:16.292Z,29.20
2018-10-21T03:33:44.917Z,25.53
2018-10-21T03:36:13.202Z,37.03
2018-10-21T03:38:41.747Z,27.47
2018-10-21T03:41:10.089Z,29.43
2018-10-21T03:43:38.527Z,31.90
2018-10-21T03:46:06.992Z,27.43
2018-10-21T03:48:35.520Z,27.00
2018-10-21T03:51:03.930Z,37.87
2018-10-21T03:53:32.452Z,29.70
2018-10-21T03:56:00.908Z,26.67
2018-10-21T03:58:29.375Z,33.90
2018-10-21T04:00:57.832Z,37.73
2018-10-21T04:03:26.246Z,36.77
2018-10-21T04:05:54.684Z,34.07
2018-10-21T04:08:23.254Z,30.50
2018-10-21T04:10:51.672Z,30.93
2018-10-21T04:13:20.058Z,27.30
2018-10-21T04:15:48.504Z,31.73
2018-10-21T04:18:16.800Z,32.20
2018-10-21T04:20:45.223Z,39.17
2018-10-21T04:23:13.602Z,34.73
2018-10-21T04:25:42.046Z,34.90
2018-10-21T04:28:10.802Z,31.70
2018-10-21T04:30:40.239Z,32.20
2018-10-21T04:34:10.672Z,38.57
2018-10-21T04:36:38.916Z,43.13
2018-10-21T04:41:16.916Z,41.63
2018-10-21T04:43:45.368Z,36.63
2018-10-21T04:46:13.839Z,37.00
2018-10-21T04:48:42.259Z,39.40
2018-10-21T04:51:10.669Z,38.00
2018-10-21T04:53:39.002Z,42.40
2018-10-21T04:56:07.319Z,40.60
2018-10-21T04:58:35.799Z,41.13
2018-10-21T05:01:07.464Z,41.93
2018-10-21T05:03:35.930Z,41.00
2018-10-21T05:06:04.202Z,36.17
2018-10-21T05:08:32.615Z,33.70
2018-10-21T05:11:00.977Z,37.20
2018-10-21T05:13:29.343Z,41.07
2018-10-21T05:15:57.762Z,39.07
2018-10-21T05:18:26.067Z,33.43
2018-10-21T05:20:54.415Z,39.30
2018-10-21T05:23:22.764Z,40.13
2018-10-21T05:25:51.163Z,38.70
2018-10-21T05:28:19.586Z,42.90
2018-10-21T05:30:48.038Z,40.10
2018-10-21T05:33:17.395Z,37.53
2018-10-21T05:35:45.768Z,43.40
2018-10-21T05:38:14.163Z,43.23
2018-10-21T05:40:42.809Z,36.63
2018-10-21T05:43:11.208Z,43.90
2018-10-21T05:45:39.731Z,42.17
2018-10-21T05:48:08.227Z,46.10
2018-10-21T05:50:36.771Z,48.40
2018-10-21T05:53:05.338Z,54.43
2018-10-21T05:55:33.862Z,53.73
2018-10-21T05:58:02.588Z,47.30
2018-10-21T06:00:30.977Z,47.20
2018-10-21T06:02:59.754Z,47.23
2018-10-21T06:05:40.657Z,48.40
2018-10-21T06:08:09.641Z,40.57
2018-10-21T06:10:38.171Z,40.20
2018-10-21T06:13:06.832Z,45.43
2018-10-21T06:15:35.501Z,42.80
2018-10-21T06:18:04.939Z,46.97
2018-10-21T06:20:36.927Z,49.55
2018-10-21T06:23:05.720Z,44.43
2018-10-21T06:25:34.275Z,42.50
2018-10-21T06:28:02.867Z,35.37
2018-10-21T06:30:31.682Z,33.53
2018-10-21T06:33:00.361Z,38.00
2018-10-21T06:35:28.802Z,35.37
2018-10-21T06:37:57.299Z,36.30
2018-10-21T06:40:26.199Z,30.83
2018-10-21T06:42:54.738Z,37.87
2018-10-21T06:45:23.377Z,34.63
2018-10-21T06:47:51.806Z,37.07
2018-10-21T06:50:21.082Z,37.87
2018-10-21T06:52:50.043Z,37.33
2018-10-21T06:55:18.635Z,36.47
2018-10-21T06:57:47.364Z,40.27
2018-10-21T07:00:15.924Z,35.60
2018-10-21T07:02:44.415Z,34.60
2018-10-21T07:05:24.796Z,32.97
2018-10-21T07:07:53.335Z,37.00
2018-10-21T07:10:21.775Z,35.67
2018-10-21T07:12:50.391Z,31.63
2018-10-21T07:15:19.195Z,35.10
2018-10-21T07:17:47.866Z,46.00
2018-10-21T07:20:16.466Z,35.20
2018-10-21T07:22:45.466Z,27.67
2018-10-21T07:25:13.926Z,33.80
2018-10-21T07:27:42.913Z,30.73
2018-10-21T07:30:12.610Z,28.60
2018-10-21T07:32:42.080Z,32.03
2018-10-21T07:35:14.034Z,30.77
2018-10-21T07:37:43.178Z,28.53
2018-10-21T07:40:12.537Z,28.00
2018-10-21T07:42:41.879Z,24.07
2018-10-21T07:45:10.982Z,34.67
2018-10-21T07:47:41.607Z,31.63
2018-10-21T07:50:11.231Z,28.10
2018-10-21T07:52:43.166Z,28.10
2018-10-21T07:55:16.426Z,26.97
2018-10-21T07:57:48.242Z,28.20
2018-10-21T08:02:53.797Z,24.30
2018-10-21T08:05:36.447Z,24.80
2018-10-21T08:08:17.435Z,29.10
2018-10-21T08:10:50.479Z,24.37
2018-10-21T08:13:21.134Z,24.70
2018-10-21T08:15:49.732Z,26.67
2018-10-21T08:18:18.705Z,30.23
2018-10-21T08:20:52.610Z,27.87
2018-10-21T08:23:21.161Z,25.67
2018-10-21T08:25:51.632Z,30.23
2018-10-21T08:28:20.157Z,30.00
2018-10-21T08:30:48.959Z,25.33
2018-10-21T08:33:18.380Z,29.80
2018-10-21T08:35:47.506Z,26.97
2018-10-21T08:38:15.972Z,30.20
2018-10-21T08:40:45.449Z,23.77
2018-10-21T08:43:16.333Z,24.77
2018-10-21T08:45:46.034Z,28.87
2018-10-21T08:48:18.011Z,24.23
2018-10-21T08:50:47.223Z,20.20
2018-10-21T08:53:24.460Z,22.90
2018-10-21T08:55:54.222Z,19.93
2018-10-21T08:58:23.852Z,23.53
2018-10-21T09:00:52.302Z,17.50
2018-10-21T09:06:08.259Z,19.07
2018-10-21T09:08:38.577Z,19.27
2018-10-21T09:11:08.157Z,23.23
2018-10-21T09:13:36.458Z,20.13
2018-10-21T09:16:05.828Z,17.70
2018-10-21T09:18:35.357Z,16.20
2018-10-21T09:21:04.020Z,24.47
2018-10-21T09:23:32.555Z,17.07
2018-10-21T09:26:00.908Z,18.27
2018-10-21T09:28:29.287Z,16.43
2018-10-21T09:30:57.663Z,17.00
2018-10-21T09:33:26.197Z,18.50
2018-10-21T09:35:54.570Z,11.97
2018-10-21T09:38:23.393Z,14.53
2018-10-21T09:40:51.807Z,16.83
2018-10-21T09:43:20.297Z,13.77
2018-10-21T09:45:48.651Z,15.40
2018-10-21T09:48:17.018Z,10.53
2018-10-21T09:50:45.621Z,13.23
2018-10-21T09:53:14.221Z,12.90
2018-10-21T09:55:42.651Z,17.67
2018-10-21T09:58:11.123Z,14.23
2018-10-21T10:00:44.670Z,11.10
2018-10-21T10:03:13.180Z,11.30
2018-10-21T10:05:41.515Z,12.23
2018-10-21T10:08:09.820Z,11.33
2018-10-21T10:10:38.207Z,9.97
2018-10-21T10:13:06.613Z,9.90
2018-10-21T10:15:34.972Z,13.20
2018-10-21T10:18:03.388Z,13.67
2018-10-21T10:20:31.811Z,9.47
2018-10-21T10:23:00.243Z,11.40
2018-10-21T10:25:28.666Z,13.93
2018-10-21T10:27:57.091Z,13.30
2018-10-21T10:30:25.633Z,14.97
2018-10-21T10:32:53.971Z,14.40
2018-10-21T10:35:22.328Z,17.70
2018-10-21T10:37:50.835Z,11.77
2018-10-21T10:40:19.432Z,11.00
2018-10-21T10:42:53.438Z,12.67
2018-10-21T10:45:21.951Z,15.33
2018-10-21T10:47:50.768Z,16.07
2018-10-21T10:50:19.300Z,19.80
2018-10-21T10:52:47.853Z,11.87
2018-10-21T10:55:16.330Z,19.73
2018-10-21T10:57:44.794Z,14.40
2018-10-21T11:00:13.300Z,13.07
2018-10-21T11:02:41.708Z,15.03
2018-10-21T11:05:10.626Z,17.60
2018-10-21T11:07:39.083Z,17.33
2018-10-21T11:10:08.523Z,15.10
2018-10-21T11:12:36.883Z,13.17
2018-10-21T11:15:06.117Z,12.83
2018-10-21T11:17:34.475Z,20.33
2018-10-21T11:20:03.016Z,14.23
2018-10-21T11:22:31.474Z,13.30
2018-10-21T11:24:59.920Z,10.60
2018-10-21T11:27:28.228Z,15.97
2018-10-21T11:29:57.803Z,13.53
2018-10-21T11:32:27.123Z,14.13
2018-10-21T11:34:55.527Z,11.80
2018-10-21T11:37:24.003Z,13.30
2018-10-21T11:39:52.467Z,12.30
2018-10-21T11:42:20.859Z,18.43
2018-10-21T11:44:49.405Z,11.77
2018-10-21T11:47:17.736Z,9.13
2018-10-21T11:49:46.080Z,11.00
2018-10-21T11:52:14.503Z,12.83
2018-10-21T11:54:42.855Z,10.27
2018-10-21T11:57:11.194Z,10.43
2018-10-21T11:59:39.587Z,13.27
2018-10-21T12:02:08.046Z,12.23
2018-10-21T12:04:36.411Z,14.33
2018-10-21T12:07:05.488Z,8.27
2018-10-21T12:09:34.001Z,13.10
2018-10-21T12:12:02.446Z,8.30
2018-10-21T12:14:30.876Z,8.53
2018-10-21T12:16:59.247Z,11.27
2018-10-21T12:19:27.731Z,7.33
2018-10-21T12:21:56.090Z,11.97
2018-10-21T12:24:24.414Z,9.30
2018-10-21T12:26:52.787Z,8.30
2018-10-21T12:29:21.158Z,9.80
2018-10-21T12:31:49.502Z,7.83
2018-10-21T12:34:17.850Z,11.13
2018-10-21T12:36:46.107Z,6.80
2018-10-21T12:39:14.378Z,12.73
2018-10-21T12:41:43.058Z,9.20
2018-10-21T12:44:12.401Z,12.43
2018-10-21T12:46:40.769Z,11.20
2018-10-21T12:49:09.116Z,13.27
2018-10-21T12:51:37.459Z,9.93
2018-10-21T12:54:06.907Z,6.60
2018-10-21T12:56:35.224Z,14.37
2018-10-21T12:59:03.549Z,7.00
2018-10-21T13:01:31.887Z,9.20
2018-10-21T13:04:00.211Z,9.97
2018-10-21T13:06:28.488Z,10.03
2018-10-21T13:08:56.762Z,11.00
2018-10-21T13:11:25.142Z,8.83
2018-10-21T13:13:53.462Z,11.33
2018-10-21T13:16:21.783Z,8.80
2018-10-21T13:18:50.143Z,5.47
2018-10-21T13:21:18.424Z,7.37
2018-10-21T13:23:46.778Z,10.90
2018-10-21T13:26:15.043Z,8.80
2018-10-21T13:28:43.366Z,7.13
2018-10-21T13:31:11.671Z,15.43
2018-10-21T13:33:39.970Z,8.57
2018-10-21T13:36:08.330Z,6.20
2018-10-21T13:38:36.700Z,7.67
2018-10-21T13:41:05.350Z,7.50
2018-10-21T13:43:33.781Z,7.53
2018-10-21T13:46:02.237Z,7.80
2018-10-21T13:48:30.570Z,6.30
2018-10-21T13:50:59.026Z,9.80
2018-10-21T13:53:27.570Z,8.20
2018-10-21T13:55:56.003Z,13.77
2018-10-21T13:58:24.473Z,13.50
2018-10-21T14:00:53.066Z,9.23
2018-10-21T14:03:21.584Z,6.83
2018-10-21T14:05:49.994Z,8.10
2018-10-21T14:08:18.623Z,8.87
2018-10-21T14:10:47.150Z,10.20
2018-10-21T14:13:15.613Z,8.83
2018-10-21T14:15:43.935Z,8.80
2018-10-21T14:18:12.286Z,9.80
2018-10-21T14:20:40.671Z,8.33
2018-10-21T14:23:09.135Z,11.70
2018-10-21T14:25:37.575Z,9.50
2018-10-21T14:28:06.106Z,15.00
2018-10-21T14:30:34.609Z,11.53
2018-10-21T14:33:02.995Z,11.40
2018-10-21T14:35:31.439Z,11.73
2018-10-21T14:37:59.992Z,12.13
2018-10-21T14:40:28.325Z,9.57
2018-10-21T14:42:56.824Z,8.93
2018-10-21T14:45:25.227Z,15.67
2018-10-21T14:47:53.606Z,10.50
2018-10-21T14:50:21.971Z,10.27
2018-10-21T14:52:50.402Z,8.47
2018-10-21T14:55:18.928Z,11.27
2018-10-21T14:57:47.188Z,11.87
2018-10-21T15:00:15.657Z,8.07
2018-10-21T15:02:43.966Z,11.53
2018-10-21T15:05:13.346Z,12.60
2018-10-21T15:07:42.984Z,10.90
2018-10-21T15:10:11.891Z,9.77
2018-10-21T15:12:40.243Z,14.83
2018-10-21T15:15:10.500Z,7.90
2018-10-21T15:17:39.071Z,7.70
2018-10-21T15:20:09.289Z,6.83
2018-10-21T15:22:37.600Z,9.30
2018-10-21T15:25:08.121Z,12.20
2018-10-21T15:27:36.426Z,10.10
2018-10-21T15:30:05.639Z,5.97
2018-10-21T15:32:33.959Z,5.80
2018-10-21T15:35:02.425Z,7.90
2018-10-21T15:37:30.787Z,5.40
2018-10-21T15:39:59.277Z,9.40
2018-10-21T15:42:27.562Z,8.70
2018-10-21T15:44:55.806Z,9.10
2018-10-21T15:47:24.138Z,5.67
2018-10-21T15:49:52.443Z,6.43
2018-10-21T15:52:21.091Z,10.60
2018-10-21T15:54:49.338Z,9.00
2018-10-21T15:57:17.649Z,9.87
2018-10-21T15:59:46.213Z,11.07
2018-10-21T16:02:14.604Z,8.20
2018-10-21T16:04:42.796Z,10.30
2018-10-21T16:07:11.171Z,15.37
2018-10-21T16:09:39.631Z,11.10
2018-10-21T16:12:08.055Z,17.03
2018-10-21T16:14:36.613Z,7.90
2018-10-21T16:17:05.339Z,7.30
2018-10-21T16:19:33.846Z,7.63
2018-10-21T16:22:02.557Z,7.33
2018-10-21T16:24:30.950Z,5.53
2018-10-21T16:26:59.457Z,8.77
2018-10-21T16:29:27.915Z,8.53
2018-10-21T16:31:56.428Z,4.40
2018-10-21T16:34:24.795Z,8.13
2018-10-21T16:36:53.230Z,9.47
2018-10-21T16:39:21.751Z,10.70
2018-10-21T16:41:50.185Z,5.83
2018-10-21T16:44:18.674Z,15.47
2018-10-21T16:46:47.239Z,8.20
2018-10-21T16:49:15.795Z,18.90
2018-10-21T16:51:44.170Z,7.73
2018-10-21T16:54:12.700Z,8.53
2018-10-21T16:56:41.110Z,11.70
2018-10-21T16:59:09.563Z,11.80
2018-10-21T17:01:38.044Z,13.07
2018-10-21T17:04:06.847Z,13.07
2018-10-21T17:06:35.315Z,9.87
2018-10-21T17:09:03.904Z,14.50
2018-10-21T17:11:32.328Z,16.27
2018-10-21T17:14:00.794Z,9.33
2018-10-21T17:16:29.303Z,12.43
2018-10-21T17:18:57.757Z,14.80
2018-10-21T17:21:26.216Z,8.73
2018-10-21T17:23:54.751Z,10.90
2018-10-21T17:26:23.215Z,16.53
2018-10-21T17:28:51.705Z,12.57
2018-10-21T17:31:20.123Z,14.43
2018-10-21T17:33:48.558Z,13.70
2018-10-21T17:36:17.012Z,18.20
2018-10-21T17:38:45.455Z,13.57
2018-10-21T17:41:13.915Z,14.23
2018-10-21T17:43:42.355Z,13.40
2018-10-21T17:46:10.865Z,10.83
2018-10-21T17:48:39.138Z,14.03
2018-10-21T17:51:07.606Z,9.93
2018-10-21T17:53:35.959Z,7.70
2018-10-21T17:56:05.672Z,8.97
2018-10-21T17:58:34.978Z,7.17
2018-10-21T18:01:03.229Z,11.30
2018-10-21T18:03:31.610Z,15.33
2018-10-21T18:05:59.987Z,49.87
2018-10-21T18:08:28.416Z,36.40
2018-10-21T18:10:56.803Z,19.43
2018-10-21T18:13:25.196Z,42.87
2018-10-21T18:15:53.646Z,20.50
2018-10-21T18:18:21.991Z,22.30
2018-10-21T18:20:50.479Z,16.87
2018-10-21T18:23:18.971Z,14.80
2018-10-21T18:25:47.483Z,11.60
2018-10-21T18:28:16.018Z,13.63
2018-10-21T18:30:44.451Z,12.20
2018-10-21T18:33:12.954Z,11.93
2018-10-21T18:35:41.462Z,12.30
2018-10-21T18:38:09.850Z,10.93
2018-10-21T18:40:38.334Z,14.83
2018-10-21T18:43:06.841Z,9.40
2018-10-21T18:45:35.335Z,12.77
2018-10-21T18:48:03.719Z,6.80
2018-10-21T18:50:32.201Z,9.77
2018-10-21T18:53:00.735Z,11.37
2018-10-21T18:55:29.257Z,11.90
2018-10-21T18:57:57.710Z,9.20
2018-10-21T19:00:26.170Z,13.93
2018-10-21T19:02:54.572Z,7.77
2018-10-21T19:05:23.059Z,12.63
2018-10-21T19:07:51.547Z,9.23
2018-10-21T19:10:19.942Z,9.63
2018-10-21T19:12:59.572Z,9.60
2018-10-21T19:15:16.927Z,12.77
2018-10-21T19:17:45.379Z,9.20
2018-10-21T19:20:15.891Z,8.80
2018-10-21T19:22:44.162Z,9.70
2018-10-21T19:25:13.849Z,10.13
2018-10-21T19:27:42.771Z,9.53
2018-10-21T19:30:12.279Z,13.87
2018-10-21T19:32:41.206Z,12.80
2018-10-21T19:35:11.020Z,10.57
2018-10-21T19:37:39.990Z,13.67
2018-10-21T19:40:09.707Z,9.63
2018-10-21T19:42:38.106Z,13.10
2018-10-21T19:45:07.309Z,10.43
2018-10-21T19:47:35.683Z,10.83
2018-10-21T19:50:04.163Z,9.73
2018-10-21T19:52:32.583Z,10.17
2018-10-21T19:55:01.072Z,12.10
2018-10-21T19:57:29.550Z,12.50
2018-10-21T19:59:58.128Z,14.10
2018-10-21T20:02:26.832Z,10.90
2018-10-21T20:04:55.266Z,14.73
2018-10-21T20:07:23.814Z,10.83
2018-10-21T20:09:52.331Z,14.90
2018-10-21T20:12:21.043Z,13.37
2018-10-21T20:14:49.443Z,12.90
2018-10-21T20:17:17.842Z,11.30
2018-10-21T20:19:47.324Z,12.77
2018-10-21T20:22:15.878Z,8.80
2018-10-21T20:24:44.271Z,24.80
2018-10-21T20:27:12.719Z,18.30
2018-10-21T20:29:41.196Z,8.07
2018-10-21T20:32:09.723Z,8.67
2018-10-21T20:34:38.151Z,9.20
2018-10-21T20:37:06.578Z,11.70
2018-10-21T20:39:35.067Z,10.43
2018-10-21T20:42:03.720Z,11.70
2018-10-21T20:44:32.135Z,11.10
2018-10-21T20:47:00.660Z,16.20
2018-10-21T20:49:29.099Z,11.90
2018-10-21T20:51:57.569Z,19.00
2018-10-21T20:54:32.091Z,15.50
2018-10-21T20:57:05.247Z,13.00
2018-10-21T20:59:33.566Z,11.97
2018-10-21T21:02:01.831Z,20.73
2018-10-21T21:04:30.231Z,9.70
2018-10-21T21:06:58.852Z,10.73
2018-10-21T21:09:27.395Z,13.07
2018-10-21T21:11:55.888Z,17.13
2018-10-21T21:14:24.403Z,10.00
2018-10-21T21:16:52.863Z,13.23
2018-10-21T21:19:21.340Z,10.17
2018-10-21T21:21:50.015Z,9.90
2018-10-21T21:24:18.571Z,20.33
2018-10-21T21:26:47.581Z,13.70
2018-10-21T21:29:16.023Z,11.30
2018-10-21T21:31:45.204Z,11.63
2018-10-21T21:34:14.030Z,11.73
2018-10-21T21:36:42.415Z,13.00
2018-10-21T21:39:12.771Z,12.43
2018-10-21T21:41:42.414Z,13.70
2018-10-21T21:44:10.855Z,15.47
2018-10-21T21:46:40.003Z,12.63
2018-10-21T21:49:09.452Z,19.63
2018-10-21T21:51:38.107Z,16.60
2018-10-21T21:54:07.402Z,12.67
2018-10-21T21:56:35.798Z,12.70
2018-10-21T21:59:04.243Z,15.00
2018-10-21T22:01:32.690Z,18.13
2018-10-21T22:04:01.155Z,12.97
2018-10-21T22:06:29.617Z,19.80
2018-10-21T22:08:58.216Z,13.23
2018-10-21T22:11:26.707Z,17.90
2018-10-21T22:13:55.150Z,17.23
2018-10-21T22:16:23.611Z,13.43
2018-10-21T22:18:51.988Z,12.17
2018-10-21T22:21:20.443Z,14.63
2018-10-21T22:23:48.876Z,12.20
2018-10-21T22:26:17.355Z,13.03
2018-10-21T22:28:45.839Z,16.10
2018-10-21T22:31:14.361Z,13.07
2018-10-21T22:33:42.762Z,12.53
2018-10-21T22:36:11.381Z,15.57
2018-10-21T22:38:39.631Z,15.80
2018-10-21T22:41:08.090Z,18.63
2018-10-21T22:43:36.663Z,11.67
2018-10-21T22:46:05.257Z,13.73
2018-10-21T22:48:33.815Z,12.07
2018-10-21T22:51:02.198Z,11.97
2018-10-21T22:53:30.839Z,15.23
2018-10-21T22:55:59.286Z,12.07
2018-10-21T22:58:27.735Z,19.33
2018-10-21T23:00:56.219Z,17.10
2018-10-21T23:03:24.710Z,11.20
2018-10-21T23:05:53.099Z,17.90
2018-10-21T23:08:21.652Z,14.63
2018-10-21T23:10:50.011Z,11.73
2018-10-21T23:13:18.383Z,12.93
2018-10-21T23:15:46.815Z,16.00
2018-10-21T23:18:15.305Z,13.60
2018-10-21T23:20:43.638Z,11.00
2018-10-21T23:23:12.056Z,14.97
2018-10-21T23:25:40.531Z,11.57
2018-10-21T23:28:09.038Z,16.67
2018-10-21T23:30:37.431Z,12.93
2018-10-21T23:33:05.831Z,9.57
2018-10-21T23:35:34.250Z,9.20
2018-10-21T23:38:02.715Z,13.50
2018-10-21T23:40:31.218Z,12.07
2018-10-21T23:42:59.694Z,14.23
2018-10-21T23:45:28.079Z,11.23
2018-10-21T23:47:56.461Z,15.87
2018-10-21T23:50:24.839Z,13.10
2018-10-21T23:52:53.219Z,11.63
2018-10-21T23:55:21.603Z,11.70
2018-10-21T23:57:49.971Z,13.60
